createdAt,value
2019-04-23T00:01:47.127Z,100228.16
2019-04-23T00:04:10.428Z,100219.02
2019-04-23T00:07:04.156Z,100216.53
2019-04-23T00:09:20.467Z,100209.56
2019-04-23T00:11:46.210Z,100206.47
2019-04-23T00:14:23.999Z,100196.23
2019-04-23T00:16:51.405Z,100197.24
2019-04-23T00:19:18.980Z,100194.58
2019-04-23T00:21:59.969Z,100188.27
2019-04-23T00:29:53.638Z,100196.25
2019-04-23T00:32:23.433Z,100185.91
2019-04-23T00:34:55.340Z,100193.61
2019-04-23T00:37:29.278Z,100189.32
2019-04-23T00:39:54.774Z,100182.27
2019-04-23T00:44:56.297Z,100180.86
2019-04-23T00:47:25.527Z,100177.73
2019-04-23T00:50:07.414Z,100179.05
2019-04-23T00:52:30.535Z,100177.06
2019-04-23T00:55:07.176Z,100183.11
2019-04-23T00:57:32.506Z,100181.52
2019-04-23T01:00:22.187Z,100188.27
2019-04-23T01:02:37.030Z,100181.97
2019-04-23T01:05:10.308Z,100180.86
2019-04-23T01:07:34.924Z,100169.31
2019-04-23T01:10:15.176Z,100173.38
2019-04-23T01:12:46.963Z,100169.52
2019-04-23T01:15:21.267Z,100177.05
2019-04-23T01:20:29.268Z,100168.80
2019-04-23T01:22:42.083Z,100167.33
2019-04-23T01:25:30.373Z,100169.58
2019-04-23T01:28:23.497Z,100171.33
2019-04-23T01:30:59.250Z,100166.55
2019-04-23T01:33:29.670Z,100166.20
2019-04-23T01:36:07.921Z,100171.66
2019-04-23T01:38:27.968Z,100164.54
2019-04-23T01:40:55.589Z,100161.25
2019-04-23T01:43:23.463Z,100164.23
2019-04-23T01:45:54.604Z,100157.39
2019-04-23T01:48:26.076Z,100158.41
2019-04-23T01:51:07.827Z,100158.94
2019-04-23T01:53:33.276Z,100159.37
2019-04-23T01:56:03.119Z,100155.47
2019-04-23T01:58:40.306Z,100153.41
2019-04-23T02:03:37.829Z,100143.58
2019-04-23T02:06:07.121Z,100146.70
2019-04-23T02:08:32.257Z,100142.62
2019-04-23T02:11:09.726Z,100141.95
2019-04-23T02:13:38.369Z,100135.45
2019-04-23T02:16:25.793Z,100135.06
2019-04-23T02:18:38.834Z,100134.53
2019-04-23T02:21:10.586Z,100130.66
2019-04-23T02:23:49.116Z,100126.41
2019-04-23T02:26:20.100Z,100126.09
2019-04-23T02:28:54.869Z,100126.93
2019-04-23T02:31:44.602Z,100134.12
2019-04-23T02:34:09.696Z,100129.20
2019-04-23T02:36:32.419Z,100138.20
2019-04-23T02:38:55.504Z,100123.66
2019-04-23T02:44:11.698Z,100129.81
2019-04-23T02:46:25.002Z,100125.71
2019-04-23T02:49:07.096Z,100125.27
2019-04-23T02:51:35.213Z,100128.34
2019-04-23T02:55:17.736Z,100113.50
2019-04-23T02:57:54.089Z,100108.78
2019-04-23T03:00:28.927Z,100107.11
2019-04-23T03:03:06.218Z,100099.77
2019-04-23T03:05:46.701Z,100100.84
2019-04-23T03:10:59.726Z,100091.91
2019-04-23T03:30:16.999Z,100063.87
2019-04-23T03:32:59.933Z,100073.64
2019-04-23T03:38:00.775Z,100066.26
2019-04-23T03:40:30.295Z,100074.19
2019-04-23T03:44:14.590Z,100072.55
2019-04-23T03:51:52.414Z,100071.75
2019-04-23T03:57:06.113Z,100073.36
2019-04-23T04:02:02.873Z,100075.19
2019-04-23T04:07:00.817Z,100070.59
2019-04-23T04:11:57.239Z,100059.22
2019-04-23T04:14:44.745Z,100062.41
2019-04-23T04:16:59.820Z,100064.19
2019-04-23T04:24:34.947Z,100065.50
2019-04-23T04:29:47.220Z,100062.62
2019-04-23T04:35:07.240Z,100055.27
2019-04-23T04:39:42.814Z,100047.78
2019-04-23T04:47:10.085Z,100045.84
2019-04-23T04:49:50.917Z,100041.25
2019-04-23T04:52:34.183Z,100045.80
2019-04-23T04:54:30.956Z,100045.16
2019-04-23T04:57:20.807Z,100034.88
2019-04-23T05:03:04.451Z,100039.13
2019-04-23T05:05:02.367Z,100037.30
2019-04-23T05:07:32.663Z,100044.68
2019-04-23T05:09:56.994Z,100042.84
2019-04-23T05:14:59.638Z,100036.17
2019-04-23T05:18:00.098Z,100030.23
2019-04-23T05:20:26.072Z,100030.77
2019-04-23T05:25:25.478Z,100031.42
2019-04-23T05:30:33.026Z,100031.06
2019-04-23T05:33:07.752Z,100022.81
2019-04-23T05:35:47.883Z,100025.89
2019-04-23T05:45:35.056Z,100013.43
2019-04-23T05:50:50.622Z,100021.93
2019-04-23T05:55:42.664Z,100018.83
2019-04-23T05:58:16.661Z,100015.70
2019-04-23T06:00:45.756Z,100014.46
2019-04-23T06:03:19.507Z,100012.15
2019-04-23T06:05:49.720Z,100016.12
2019-04-23T06:08:25.787Z,100007.93
2019-04-23T06:10:55.850Z,100006.22
2019-04-23T06:13:30.846Z,100009.52
2019-04-23T06:15:52.091Z,100008.91
2019-04-23T06:18:30.702Z,99995.71
2019-04-23T06:28:27.563Z,99998.50
2019-04-23T06:31:04.996Z,99991.20
2019-04-23T06:33:32.254Z,99988.26
2019-04-23T06:36:05.632Z,99982.98
2019-04-23T06:38:53.781Z,99981.76
2019-04-23T06:41:10.047Z,99988.23
2019-04-23T06:46:50.254Z,99984.38
2019-04-23T06:49:22.127Z,99979.70
2019-04-23T06:51:52.202Z,99976.86
2019-04-23T06:54:19.173Z,99976.46
2019-04-23T06:59:17.368Z,99972.08
2019-04-23T07:04:28.976Z,99959.48
2019-04-23T07:07:13.630Z,99959.41
2019-04-23T07:09:13.381Z,99958.89
2019-04-23T07:11:47.867Z,99961.45
2019-04-23T07:14:30.543Z,99952.86
2019-04-23T07:16:54.484Z,99956.02
2019-04-23T07:22:10.294Z,99950.27
2019-04-23T07:24:31.272Z,99951.44
2019-04-23T07:26:55.808Z,99947.63
2019-04-23T07:29:31.367Z,99937.73
2019-04-23T07:32:02.998Z,99927.06
2019-04-23T07:34:32.080Z,99933.04
2019-04-23T07:37:05.087Z,99924.46
2019-04-23T07:40:07.586Z,99927.52
2019-04-23T07:42:41.595Z,99922.20
2019-04-23T07:45:26.089Z,99923.78
2019-04-23T07:58:25.773Z,99915.02
2019-04-23T08:03:21.062Z,99909.69
2019-04-23T08:05:49.079Z,99912.42
2019-04-23T08:08:16.868Z,99895.73
2019-04-23T08:13:53.386Z,99904.03
2019-04-23T08:18:53.856Z,99898.70
2019-04-23T08:21:19.249Z,99905.62
2019-04-23T08:29:30.356Z,99897.38
2019-04-23T08:37:15.626Z,99878.93
2019-04-23T08:42:33.111Z,99880.50
2019-04-23T08:48:15.461Z,99872.03
2019-04-23T08:50:42.563Z,99877.99
2019-04-23T08:53:26.361Z,99862.52
2019-04-23T08:58:20.095Z,99856.66
2019-04-23T09:00:51.975Z,99857.31
2019-04-23T09:03:28.463Z,99863.22
2019-04-23T09:05:52.737Z,99849.84
2019-04-23T09:08:19.166Z,99848.25
2019-04-23T09:10:56.275Z,99852.25
2019-04-23T09:13:52.310Z,99851.58
2019-04-23T09:15:55.559Z,99841.44
2019-04-23T09:21:00.405Z,99829.02
2019-04-23T09:23:34.483Z,99821.61
2019-04-23T09:31:17.305Z,99828.24
2019-04-23T09:33:51.988Z,99815.94
2019-04-23T09:36:45.616Z,99811.52
2019-04-23T09:42:08.386Z,99808.47
2019-04-23T09:47:53.500Z,99813.89
2019-04-23T09:53:01.826Z,99800.14
2019-04-23T09:58:00.676Z,99790.30
2019-04-23T10:02:44.810Z,99791.11
2019-04-23T10:05:11.125Z,99792.84
2019-04-23T10:07:38.581Z,99791.16
2019-04-23T10:09:59.437Z,99792.94
2019-04-23T10:12:30.249Z,99797.14
2019-04-23T10:15:08.122Z,99785.16
2019-04-23T10:17:31.931Z,99787.00
2019-04-23T10:20:02.649Z,99784.33
2019-04-23T10:22:34.487Z,99779.83
2019-04-23T10:25:03.677Z,99773.25
2019-04-23T10:27:33.068Z,99772.16
2019-04-23T10:30:03.859Z,99767.81
2019-04-23T10:32:33.593Z,99759.55
2019-04-23T10:42:32.073Z,99745.34
2019-04-23T10:58:54.162Z,99748.94
2019-04-23T11:02:25.410Z,99745.86
2019-04-23T11:05:15.837Z,99737.04
2019-04-23T11:08:02.225Z,99739.24
2019-04-23T11:11:10.892Z,99737.20
2019-04-23T11:14:04.585Z,99734.63
2019-04-23T11:17:03.814Z,99729.55
2019-04-23T11:20:14.918Z,99729.30
2019-04-23T11:36:37.970Z,99707.08
2019-04-23T12:18:05.377Z,99702.82
2019-04-23T12:21:28.260Z,99698.53
2019-04-23T12:30:03.582Z,99688.91
2019-04-23T12:33:21.752Z,99683.90
2019-04-23T12:36:33.888Z,99693.14
2019-04-23T12:39:08.641Z,99704.12
2019-04-23T12:41:41.941Z,99687.89
2019-04-23T12:44:10.927Z,99681.14
2019-04-23T12:49:52.850Z,99677.48
2019-04-23T12:51:56.040Z,99673.58
2019-04-23T12:54:43.233Z,99669.16
2019-04-23T12:57:05.149Z,99674.13
2019-04-23T12:59:32.969Z,99665.14
2019-04-23T13:02:03.597Z,99657.73
2019-04-23T13:04:32.469Z,99660.31
2019-04-23T13:06:59.347Z,99657.18
2019-04-23T13:09:48.835Z,99644.30
2019-04-23T13:12:10.498Z,99639.03
2019-04-23T13:14:43.734Z,99644.42
2019-04-23T13:17:21.294Z,99642.59
2019-04-23T13:19:51.870Z,99645.59
2019-04-23T13:22:16.546Z,99645.38
2019-04-23T13:25:13.312Z,99638.88
2019-04-23T13:27:54.249Z,99629.97
2019-04-23T13:30:23.288Z,99633.42
2019-04-23T13:32:55.446Z,99625.53
2019-04-23T13:37:59.297Z,99631.66
2019-04-23T13:40:26.103Z,99625.11
2019-04-23T13:43:06.962Z,99614.31
2019-04-23T13:45:49.908Z,99612.37
2019-04-23T13:48:01.181Z,99612.12
2019-04-23T13:50:40.381Z,99613.15
2019-04-23T13:55:24.745Z,99599.03
2019-04-23T14:03:21.660Z,99590.82
2019-04-23T14:05:49.438Z,99598.26
2019-04-23T14:08:34.883Z,99604.33
2019-04-23T14:10:55.417Z,99590.37
2019-04-23T14:16:03.985Z,99583.24
2019-04-23T14:18:53.883Z,99577.72
2019-04-23T14:21:11.176Z,99568.55
2019-04-23T14:23:57.728Z,99572.02
2019-04-23T14:26:18.833Z,99573.32
2019-04-23T14:33:52.883Z,99555.39
2019-04-23T14:36:07.578Z,99556.99
2019-04-23T14:38:41.650Z,99561.07
2019-04-23T14:41:21.760Z,99557.59
2019-04-23T14:43:49.510Z,99545.31
2019-04-23T14:59:02.815Z,99548.30
2019-04-23T15:02:05.536Z,99540.51
2019-04-23T15:05:06.466Z,99547.60
2019-04-23T15:08:06.224Z,99538.20
2019-04-23T15:11:11.887Z,99535.53
2019-04-23T15:14:01.438Z,99529.64
2019-04-23T15:20:04.825Z,99531.11
2019-04-23T15:26:47.806Z,99528.81
2019-04-23T15:28:40.812Z,99525.83
2019-04-23T15:32:03.262Z,99523.11
2019-04-23T15:38:24.669Z,99526.35
2019-04-23T15:41:10.459Z,99519.14
2019-04-23T15:44:14.346Z,99512.91
2019-04-23T15:47:04.554Z,99504.85
2019-04-23T15:55:12.329Z,99515.37
2019-04-23T15:58:09.744Z,99508.66
2019-04-23T16:00:31.615Z,99515.09
2019-04-23T16:02:33.955Z,99509.69
2019-04-23T16:05:03.767Z,99501.86
2019-04-23T16:07:51.574Z,99509.84
2019-04-23T16:10:29.556Z,99505.81
2019-04-23T16:13:02.938Z,99504.09
2019-04-23T16:15:38.335Z,99504.55
2019-04-23T16:18:35.564Z,99511.47
2019-04-23T16:21:03.435Z,99515.09
2019-04-23T16:23:26.449Z,99509.86
2019-04-23T16:25:58.424Z,99505.31
2019-04-23T16:34:32.199Z,99502.24
2019-04-23T16:37:04.726Z,99501.12
2019-04-23T16:39:30.789Z,99500.64
2019-04-23T16:42:08.783Z,99500.99
2019-04-23T16:47:10.821Z,99508.45
2019-04-23T16:49:42.145Z,99504.77
2019-04-23T16:52:07.794Z,99504.89
2019-04-23T16:54:50.608Z,99504.03
2019-04-23T16:59:49.745Z,99499.54
2019-04-23T17:02:21.399Z,99497.72
2019-04-23T17:04:46.143Z,99500.60
2019-04-23T17:07:24.260Z,99501.02
2019-04-23T17:09:55.345Z,99497.16
2019-04-23T17:12:13.770Z,99500.92
2019-04-23T17:15:02.074Z,99496.13
2019-04-23T17:17:15.072Z,99495.44
2019-04-23T17:19:54.700Z,99503.01
2019-04-23T17:22:17.985Z,99499.38
2019-04-23T17:25:00.285Z,99498.42
2019-04-23T17:30:00.177Z,99499.53
2019-04-23T17:33:23.952Z,99499.43
2019-04-23T17:36:05.397Z,99502.44
2019-04-23T17:38:34.052Z,99491.72
2019-04-23T17:41:13.719Z,99487.44
2019-04-23T17:43:47.013Z,99501.58
2019-04-23T17:50:25.381Z,99507.94
2019-04-23T18:05:25.160Z,99512.48
2019-04-23T18:08:01.122Z,99506.17
2019-04-23T18:10:34.069Z,99517.01
2019-04-23T18:12:57.948Z,99518.84
2019-04-23T18:15:17.474Z,99526.64
2019-04-23T18:20:55.307Z,99524.72
2019-04-23T18:23:32.441Z,99517.70
2019-04-23T18:25:54.457Z,99520.59
2019-04-23T18:28:19.699Z,99519.86
2019-04-23T18:31:12.884Z,99523.45
2019-04-23T18:36:22.621Z,99532.68
2019-04-23T18:41:41.614Z,99534.77
2019-04-23T18:44:18.485Z,99537.05
2019-04-23T18:46:36.968Z,99532.36
2019-04-23T18:49:01.774Z,99533.60
2019-04-23T18:51:41.754Z,99541.98
2019-04-23T18:54:05.499Z,99542.36
2019-04-23T18:57:00.180Z,99539.77
2019-04-23T18:59:11.029Z,99543.20
2019-04-23T19:02:02.504Z,99539.73
2019-04-23T19:04:56.726Z,99536.77
2019-04-23T19:07:32.218Z,99545.02
2019-04-23T19:13:07.049Z,99537.39
2019-04-23T19:15:30.058Z,99542.41
2019-04-23T19:20:43.859Z,99534.17
2019-04-23T19:22:58.836Z,99534.44
2019-04-23T19:25:27.909Z,99538.67
2019-04-23T19:28:32.475Z,99540.58
2019-04-23T19:30:41.723Z,99532.74
2019-04-23T19:33:13.886Z,99536.47
2019-04-23T19:35:58.610Z,99544.55
2019-04-23T19:38:11.169Z,99541.61
2019-04-23T19:43:11.272Z,99549.78
2019-04-23T19:45:49.417Z,99547.77
2019-04-23T19:48:25.724Z,99548.11
2019-04-23T19:53:25.615Z,99557.67
2019-04-23T19:56:06.577Z,99548.72
2019-04-23T19:58:29.992Z,99548.50
2019-04-23T20:01:11.315Z,99547.66
2019-04-23T20:03:52.597Z,99548.84
2019-04-23T20:06:55.314Z,99550.79
2019-04-23T20:12:40.769Z,99551.34
2019-04-23T20:15:35.591Z,99546.58
2019-04-23T20:17:56.620Z,99540.90
2019-04-23T20:20:49.816Z,99544.39
2019-04-23T20:23:58.977Z,99541.51
2019-04-23T20:29:22.425Z,99543.01
2019-04-23T20:33:08.652Z,99539.70
2019-04-23T20:36:59.485Z,99540.48
2019-04-23T20:39:30.341Z,99542.92
2019-04-23T20:44:43.285Z,99546.76
2019-04-23T20:47:10.254Z,99543.84
2019-04-23T20:49:45.670Z,99544.11
2019-04-23T20:52:15.280Z,99545.89
2019-04-23T20:57:51.833Z,99543.62
2019-04-23T21:00:23.476Z,99543.53
2019-04-23T21:03:25.612Z,99548.77
2019-04-23T21:05:22.839Z,99542.36
2019-04-23T21:13:17.279Z,99547.59
2019-04-23T21:15:40.553Z,99543.55
2019-04-23T21:18:22.370Z,99546.20
2019-04-23T21:20:50.096Z,99547.53
2019-04-23T21:23:23.713Z,99546.98
2019-04-23T21:25:54.173Z,99546.71
2019-04-23T21:28:40.073Z,99540.89
2019-04-23T21:31:40.447Z,99543.05
2019-04-23T21:39:53.640Z,99543.59
2019-04-23T21:42:14.434Z,99539.38
2019-04-23T21:44:40.503Z,99547.03
2019-04-23T21:47:11.375Z,99542.77
2019-04-23T21:49:58.032Z,99536.03
2019-04-23T21:52:20.562Z,99540.80
2019-04-23T21:54:51.166Z,99537.05
2019-04-23T21:57:32.475Z,99537.59
2019-04-23T21:59:51.035Z,99548.45
2019-04-23T22:02:23.644Z,99545.25
2019-04-23T22:04:52.717Z,99542.36
2019-04-23T22:07:29.119Z,99537.83
2019-04-23T22:09:57.702Z,99539.84
2019-04-23T22:12:23.504Z,99544.37
2019-04-23T22:20:09.494Z,99556.11
2019-04-23T22:22:45.481Z,99557.21
2019-04-23T22:24:57.792Z,99556.98
2019-04-23T22:27:32.636Z,99560.88
2019-04-23T22:30:22.732Z,99564.55
2019-04-23T22:32:47.719Z,99562.14
2019-04-23T22:35:07.999Z,99570.09
2019-04-23T22:37:42.825Z,99565.63
2019-04-23T22:40:04.763Z,99562.60
2019-04-23T22:47:47.880Z,99572.01
2019-04-23T22:50:10.873Z,99564.50
2019-04-23T22:52:48.609Z,99567.25
2019-04-23T22:57:58.743Z,99571.99
2019-04-23T23:00:19.392Z,99575.65
2019-04-23T23:03:21.427Z,99572.21
2019-04-23T23:06:03.146Z,99572.45
2019-04-23T23:08:16.337Z,99569.91
2019-04-23T23:10:52.207Z,99567.85
2019-04-23T23:13:20.714Z,99577.04
2019-04-23T23:15:53.222Z,99581.43
2019-04-23T23:18:18.167Z,99583.67
2019-04-23T23:21:04.191Z,99585.14
2019-04-23T23:23:21.354Z,99579.09
2019-04-23T23:25:56.302Z,99583.38
2019-04-23T23:28:42.065Z,99588.05
2019-04-23T23:31:05.295Z,99579.96
2019-04-23T23:36:08.354Z,99582.62
2019-04-23T23:38:36.684Z,99582.89
2019-04-23T23:41:19.144Z,99574.52
2019-04-23T23:43:29.724Z,99590.07
2019-04-23T23:46:18.615Z,99578.48
2019-04-23T23:48:35.953Z,99579.39
2019-04-23T23:51:11.585Z,99584.16
2019-04-23T23:56:10.931Z,99584.13
2019-04-23T23:58:55.318Z,99585.92
